sensor_id;sensor_type;location;lat;lon;timestamp;P1;durP1;ratioP1;P2;durP2;ratioP2
28266;SDS011;15525;45.568;5.448;2023-02-08T00:01:09;56.08;;;26.52;;
28266;SDS011;15525;45.568;5.448;2023-02-08T00:03:36;54.65;;;27.58;;
28266;SDS011;15525;45.568;5.448;2023-02-08T00:06:02;58.00;;;28.02;;
28266;SDS011;15525;45.568;5.448;2023-02-08T00:08:28;55.08;;;27.10;;
28266;SDS011;15525;45.568;5.448;2023-02-08T00:10:54;55.63;;;27.42;;
28266;SDS011;15525;45.568;5.448;2023-02-08T00:13:19;48.97;;;24.85;;
28266;SDS011;15525;45.568;5.448;2023-02-08T00:15:45;63.55;;;28.30;;
28266;SDS011;15525;45.568;5.448;2023-02-08T00:18:10;59.15;;;26.40;;
28266;SDS011;15525;45.568;5.448;2023-02-08T00:20:37;55.60;;;26.85;;
28266;SDS011;15525;45.568;5.448;2023-02-08T00:23:04;53.00;;;26.33;;
28266;SDS011;15525;45.568;5.448;2023-02-08T00:25:29;58.85;;;27.08;;
28266;SDS011;15525;45.568;5.448;2023-02-08T00:27:55;55.60;;;26.52;;
28266;SDS011;15525;45.568;5.448;2023-02-08T00:30:20;55.75;;;26.45;;
28266;SDS011;15525;45.568;5.448;2023-02-08T00:32:45;60.38;;;28.95;;
28266;SDS011;15525;45.568;5.448;2023-02-08T00:35:11;64.82;;;29.20;;
28266;SDS011;15525;45.568;5.448;2023-02-08T00:37:36;63.95;;;29.88;;
28266;SDS011;15525;45.568;5.448;2023-02-08T00:40:02;60.60;;;29.42;;
28266;SDS011;15525;45.568;5.448;2023-02-08T00:42:29;58.50;;;27.90;;
28266;SDS011;15525;45.568;5.448;2023-02-08T00:44:55;56.72;;;27.10;;
28266;SDS011;15525;45.568;5.448;2023-02-08T00:47:21;58.55;;;28.02;;
28266;SDS011;15525;45.568;5.448;2023-02-08T00:49:46;62.67;;;29.88;;
28266;SDS011;15525;45.568;5.448;2023-02-08T00:52:12;60.00;;;28.02;;
28266;SDS011;15525;45.568;5.448;2023-02-08T00:54:37;58.63;;;27.13;;
28266;SDS011;15525;45.568;5.448;2023-02-08T00:57:02;57.15;;;26.63;;
28266;SDS011;15525;45.568;5.448;2023-02-08T00:59:28;56.20;;;25.52;;
28266;SDS011;15525;45.568;5.448;2023-02-08T01:01:54;61.38;;;26.65;;
28266;SDS011;15525;45.568;5.448;2023-02-08T01:04:19;61.22;;;28.15;;
28266;SDS011;15525;45.568;5.448;2023-02-08T01:06:44;52.97;;;25.38;;
28266;SDS011;15525;45.568;5.448;2023-02-08T01:09:10;49.70;;;24.90;;
28266;SDS011;15525;45.568;5.448;2023-02-08T01:11:35;52.90;;;25.90;;
28266;SDS011;15525;45.568;5.448;2023-02-08T01:14:01;54.17;;;25.17;;
28266;SDS011;15525;45.568;5.448;2023-02-08T01:16:27;53.42;;;25.23;;
28266;SDS011;15525;45.568;5.448;2023-02-08T01:18:55;52.88;;;24.55;;
28266;SDS011;15525;45.568;5.448;2023-02-08T01:21:24;57.63;;;25.98;;
28266;SDS011;15525;45.568;5.448;2023-02-08T01:23:55;50.70;;;23.98;;
28266;SDS011;15525;45.568;5.448;2023-02-08T01:26:21;61.10;;;26.65;;
28266;SDS011;15525;45.568;5.448;2023-02-08T01:28:47;52.45;;;24.90;;
28266;SDS011;15525;45.568;5.448;2023-02-08T01:31:15;51.92;;;24.90;;
28266;SDS011;15525;45.568;5.448;2023-02-08T01:33:42;54.17;;;24.33;;
28266;SDS011;15525;45.568;5.448;2023-02-08T01:36:08;52.38;;;23.88;;
28266;SDS011;15525;45.568;5.448;2023-02-08T01:38:34;51.63;;;25.85;;
28266;SDS011;15525;45.568;5.448;2023-02-08T01:41:01;57.97;;;25.90;;
28266;SDS011;15525;45.568;5.448;2023-02-08T01:43:28;52.22;;;25.50;;
28266;SDS011;15525;45.568;5.448;2023-02-08T01:45:57;50.15;;;23.23;;
28266;SDS011;15525;45.568;5.448;2023-02-08T01:51:04;54.65;;;25.00;;
28266;SDS011;15525;45.568;5.448;2023-02-08T01:53:37;55.65;;;26.58;;
28266;SDS011;15525;45.568;5.448;2023-02-08T01:56:05;52.90;;;25.48;;
28266;SDS011;15525;45.568;5.448;2023-02-08T01:58:35;48.67;;;24.50;;
28266;SDS011;15525;45.568;5.448;2023-02-08T02:01:04;51.97;;;24.67;;
28266;SDS011;15525;45.568;5.448;2023-02-08T02:03:30;55.45;;;24.90;;
28266;SDS011;15525;45.568;5.448;2023-02-08T02:06:03;58.75;;;25.77;;
28266;SDS011;15525;45.568;5.448;2023-02-08T02:08:32;53.40;;;25.38;;
28266;SDS011;15525;45.568;5.448;2023-02-08T02:10:58;61.15;;;27.15;;
28266;SDS011;15525;45.568;5.448;2023-02-08T02:13:24;60.15;;;27.02;;
28266;SDS011;15525;45.568;5.448;2023-02-08T02:15:51;49.30;;;23.95;;
28266;SDS011;15525;45.568;5.448;2023-02-08T02:18:27;58.22;;;26.60;;
28266;SDS011;15525;45.568;5.448;2023-02-08T02:38:21;59.25;;;25.85;;
28266;SDS011;15525;45.568;5.448;2023-02-08T02:44:04;52.33;;;24.40;;
28266;SDS011;15525;45.568;5.448;2023-02-08T02:46:42;50.38;;;23.95;;
28266;SDS011;15525;45.568;5.448;2023-02-08T02:51:50;56.90;;;25.10;;
28266;SDS011;15525;45.568;5.448;2023-02-08T02:54:37;61.30;;;26.90;;
28266;SDS011;15525;45.568;5.448;2023-02-08T02:57:25;57.60;;;26.45;;
28266;SDS011;15525;45.568;5.448;2023-02-08T02:59:56;53.15;;;24.70;;
28266;SDS011;15525;45.568;5.448;2023-02-08T03:02:23;57.03;;;25.00;;
28266;SDS011;15525;45.568;5.448;2023-02-08T03:04:52;60.65;;;26.00;;
28266;SDS011;15525;45.568;5.448;2023-02-08T03:18:00;56.35;;;25.05;;
28266;SDS011;15525;45.568;5.448;2023-02-08T03:20:36;53.75;;;24.98;;
28266;SDS011;15525;45.568;5.448;2023-02-08T03:25:35;55.35;;;25.27;;
28266;SDS011;15525;45.568;5.448;2023-02-08T03:28:28;63.15;;;26.75;;
28266;SDS011;15525;45.568;5.448;2023-02-08T03:31:18;57.60;;;24.70;;
28266;SDS011;15525;45.568;5.448;2023-02-08T03:36:55;58.03;;;25.83;;
28266;SDS011;15525;45.568;5.448;2023-02-08T03:39:28;54.78;;;25.30;;
28266;SDS011;15525;45.568;5.448;2023-02-08T03:41:57;61.28;;;25.52;;
28266;SDS011;15525;45.568;5.448;2023-02-08T03:44:31;59.50;;;25.80;;
28266;SDS011;15525;45.568;5.448;2023-02-08T03:49:44;55.28;;;24.48;;
28266;SDS011;15525;45.568;5.448;2023-02-08T03:52:13;58.80;;;26.30;;
28266;SDS011;15525;45.568;5.448;2023-02-08T03:54:51;55.53;;;24.25;;
28266;SDS011;15525;45.568;5.448;2023-02-08T03:57:21;58.15;;;25.65;;
28266;SDS011;15525;45.568;5.448;2023-02-08T03:59:50;56.40;;;25.58;;
28266;SDS011;15525;45.568;5.448;2023-02-08T04:02:23;57.00;;;25.15;;
28266;SDS011;15525;45.568;5.448;2023-02-08T04:04:52;53.97;;;24.55;;
28266;SDS011;15525;45.568;5.448;2023-02-08T04:07:18;60.47;;;25.98;;
28266;SDS011;15525;45.568;5.448;2023-02-08T04:09:44;53.90;;;24.85;;
28266;SDS011;15525;45.568;5.448;2023-02-08T04:12:10;53.30;;;24.10;;
28266;SDS011;15525;45.568;5.448;2023-02-08T04:14:35;58.63;;;25.40;;
28266;SDS011;15525;45.568;5.448;2023-02-08T04:17:01;59.72;;;25.30;;
28266;SDS011;15525;45.568;5.448;2023-02-08T04:19:26;53.80;;;25.23;;
28266;SDS011;15525;45.568;5.448;2023-02-08T04:21:52;60.25;;;26.77;;
28266;SDS011;15525;45.568;5.448;2023-02-08T04:24:18;60.30;;;25.58;;
28266;SDS011;15525;45.568;5.448;2023-02-08T04:26:44;65.32;;;27.08;;
28266;SDS011;15525;45.568;5.448;2023-02-08T04:29:09;59.10;;;26.30;;
28266;SDS011;15525;45.568;5.448;2023-02-08T04:31:35;61.25;;;25.52;;
28266;SDS011;15525;45.568;5.448;2023-02-08T04:34:00;54.00;;;23.98;;
28266;SDS011;15525;45.568;5.448;2023-02-08T04:36:26;59.97;;;26.17;;
28266;SDS011;15525;45.568;5.448;2023-02-08T04:38:52;61.70;;;26.52;;
28266;SDS011;15525;45.568;5.448;2023-02-08T04:41:17;61.05;;;26.40;;
28266;SDS011;15525;45.568;5.448;2023-02-08T04:43:43;61.70;;;25.48;;
28266;SDS011;15525;45.568;5.448;2023-02-08T04:46:08;59.67;;;26.05;;
28266;SDS011;15525;45.568;5.448;2023-02-08T04:48:33;55.13;;;25.70;;
28266;SDS011;15525;45.568;5.448;2023-02-08T04:50:59;56.97;;;26.02;;
28266;SDS011;15525;45.568;5.448;2023-02-08T04:53:24;56.30;;;24.95;;
28266;SDS011;15525;45.568;5.448;2023-02-08T04:55:50;55.75;;;25.85;;
28266;SDS011;15525;45.568;5.448;2023-02-08T04:58:16;56.15;;;24.65;;
28266;SDS011;15525;45.568;5.448;2023-02-08T05:00:42;50.60;;;23.65;;
28266;SDS011;15525;45.568;5.448;2023-02-08T05:03:08;54.58;;;24.98;;
28266;SDS011;15525;45.568;5.448;2023-02-08T05:05:33;57.70;;;24.83;;
28266;SDS011;15525;45.568;5.448;2023-02-08T05:07:59;53.80;;;23.92;;
28266;SDS011;15525;45.568;5.448;2023-02-08T05:10:24;59.00;;;25.08;;
28266;SDS011;15525;45.568;5.448;2023-02-08T05:12:50;49.80;;;22.65;;
28266;SDS011;15525;45.568;5.448;2023-02-08T05:15:16;50.20;;;23.83;;
28266;SDS011;15525;45.568;5.448;2023-02-08T05:17:41;55.03;;;24.73;;
28266;SDS011;15525;45.568;5.448;2023-02-08T05:20:07;61.22;;;23.55;;
28266;SDS011;15525;45.568;5.448;2023-02-08T05:22:33;52.92;;;23.45;;
28266;SDS011;15525;45.568;5.448;2023-02-08T05:24:59;52.17;;;23.65;;
28266;SDS011;15525;45.568;5.448;2023-02-08T05:27:24;52.25;;;24.95;;
28266;SDS011;15525;45.568;5.448;2023-02-08T05:29:50;48.25;;;22.20;;
28266;SDS011;15525;45.568;5.448;2023-02-08T05:32:16;49.13;;;20.98;;
28266;SDS011;15525;45.568;5.448;2023-02-08T05:34:41;54.20;;;23.25;;
28266;SDS011;15525;45.568;5.448;2023-02-08T05:37:07;47.95;;;22.77;;
28266;SDS011;15525;45.568;5.448;2023-02-08T05:39:32;57.10;;;24.55;;
28266;SDS011;15525;45.568;5.448;2023-02-08T05:41:58;48.63;;;23.33;;
28266;SDS011;15525;45.568;5.448;2023-02-08T05:44:24;54.65;;;23.55;;
28266;SDS011;15525;45.568;5.448;2023-02-08T05:46:49;57.45;;;23.88;;
28266;SDS011;15525;45.568;5.448;2023-02-08T05:49:15;60.83;;;23.83;;
28266;SDS011;15525;45.568;5.448;2023-02-08T05:51:40;54.28;;;23.70;;
28266;SDS011;15525;45.568;5.448;2023-02-08T05:54:06;50.17;;;22.83;;
28266;SDS011;15525;45.568;5.448;2023-02-08T05:56:31;54.55;;;24.05;;
28266;SDS011;15525;45.568;5.448;2023-02-08T05:58:59;62.80;;;25.13;;
28266;SDS011;15525;45.568;5.448;2023-02-08T06:01:25;54.92;;;24.15;;
28266;SDS011;15525;45.568;5.448;2023-02-08T06:03:51;55.35;;;24.90;;
28266;SDS011;15525;45.568;5.448;2023-02-08T06:06:16;53.75;;;24.75;;
28266;SDS011;15525;45.568;5.448;2023-02-08T06:08:41;58.67;;;26.02;;
28266;SDS011;15525;45.568;5.448;2023-02-08T06:11:07;59.97;;;25.15;;
28266;SDS011;15525;45.568;5.448;2023-02-08T06:13:32;56.30;;;24.80;;
28266;SDS011;15525;45.568;5.448;2023-02-08T06:15:58;61.50;;;26.65;;
28266;SDS011;15525;45.568;5.448;2023-02-08T06:18:23;59.53;;;25.05;;
28266;SDS011;15525;45.568;5.448;2023-02-08T06:20:52;52.70;;;22.92;;
28266;SDS011;15525;45.568;5.448;2023-02-08T06:23:18;55.85;;;23.67;;
28266;SDS011;15525;45.568;5.448;2023-02-08T06:25:44;59.67;;;23.85;;
28266;SDS011;15525;45.568;5.448;2023-02-08T06:28:09;52.78;;;22.63;;
28266;SDS011;15525;45.568;5.448;2023-02-08T06:30:35;55.30;;;23.45;;
28266;SDS011;15525;45.568;5.448;2023-02-08T06:33:01;51.65;;;21.38;;
28266;SDS011;15525;45.568;5.448;2023-02-08T06:35:27;63.30;;;26.35;;
28266;SDS011;15525;45.568;5.448;2023-02-08T06:37:53;54.78;;;23.20;;
28266;SDS011;15525;45.568;5.448;2023-02-08T06:40:18;54.30;;;22.95;;
28266;SDS011;15525;45.568;5.448;2023-02-08T06:42:45;61.30;;;27.10;;
28266;SDS011;15525;45.568;5.448;2023-02-08T06:45:14;58.13;;;25.30;;
28266;SDS011;15525;45.568;5.448;2023-02-08T06:47:40;54.97;;;25.17;;
28266;SDS011;15525;45.568;5.448;2023-02-08T06:50:05;69.45;;;30.65;;
28266;SDS011;15525;45.568;5.448;2023-02-08T06:52:31;68.70;;;27.15;;
28266;SDS011;15525;45.568;5.448;2023-02-08T06:54:56;61.42;;;26.77;;
28266;SDS011;15525;45.568;5.448;2023-02-08T06:57:22;61.67;;;26.20;;
28266;SDS011;15525;45.568;5.448;2023-02-08T06:59:47;67.43;;;27.83;;
28266;SDS011;15525;45.568;5.448;2023-02-08T07:02:16;73.78;;;32.15;;
28266;SDS011;15525;45.568;5.448;2023-02-08T07:04:43;83.75;;;32.67;;
28266;SDS011;15525;45.568;5.448;2023-02-08T07:07:10;76.90;;;31.50;;
28266;SDS011;15525;45.568;5.448;2023-02-08T07:09:36;74.25;;;31.65;;
28266;SDS011;15525;45.568;5.448;2023-02-08T07:12:01;81.70;;;31.75;;
28266;SDS011;15525;45.568;5.448;2023-02-08T07:14:29;80.38;;;32.08;;
28266;SDS011;15525;45.568;5.448;2023-02-08T07:16:59;72.50;;;29.75;;
28266;SDS011;15525;45.568;5.448;2023-02-08T07:19:25;75.07;;;30.35;;
28266;SDS011;15525;45.568;5.448;2023-02-08T07:21:51;76.82;;;30.65;;
28266;SDS011;15525;45.568;5.448;2023-02-08T07:24:17;68.72;;;28.63;;
28266;SDS011;15525;45.568;5.448;2023-02-08T07:26:42;68.97;;;29.10;;
28266;SDS011;15525;45.568;5.448;2023-02-08T07:29:07;70.55;;;28.55;;
28266;SDS011;15525;45.568;5.448;2023-02-08T07:31:33;63.15;;;27.85;;
28266;SDS011;15525;45.568;5.448;2023-02-08T07:33:58;64.28;;;26.80;;
28266;SDS011;15525;45.568;5.448;2023-02-08T07:36:24;64.85;;;27.98;;
28266;SDS011;15525;45.568;5.448;2023-02-08T07:38:49;72.63;;;28.92;;
28266;SDS011;15525;45.568;5.448;2023-02-08T07:41:15;68.50;;;27.20;;
28266;SDS011;15525;45.568;5.448;2023-02-08T07:43:40;67.80;;;28.10;;
28266;SDS011;15525;45.568;5.448;2023-02-08T07:46:11;66.00;;;27.05;;
28266;SDS011;15525;45.568;5.448;2023-02-08T07:48:38;67.40;;;28.20;;
28266;SDS011;15525;45.568;5.448;2023-02-08T07:51:04;59.78;;;27.02;;
28266;SDS011;15525;45.568;5.448;2023-02-08T07:53:29;56.75;;;26.40;;
28266;SDS011;15525;45.568;5.448;2023-02-08T07:55:56;69.40;;;26.75;;
28266;SDS011;15525;45.568;5.448;2023-02-08T07:58:21;57.25;;;26.67;;
28266;SDS011;15525;45.568;5.448;2023-02-08T08:00:47;68.15;;;28.65;;
28266;SDS011;15525;45.568;5.448;2023-02-08T08:03:13;68.85;;;29.70;;
28266;SDS011;15525;45.568;5.448;2023-02-08T08:05:39;71.80;;;29.92;;
28266;SDS011;15525;45.568;5.448;2023-02-08T08:08:05;68.78;;;28.30;;
28266;SDS011;15525;45.568;5.448;2023-02-08T08:10:32;67.57;;;28.30;;
28266;SDS011;15525;45.568;5.448;2023-02-08T08:12:57;71.00;;;28.77;;
28266;SDS011;15525;45.568;5.448;2023-02-08T08:15:22;66.22;;;28.27;;
28266;SDS011;15525;45.568;5.448;2023-02-08T08:17:48;69.13;;;31.45;;
28266;SDS011;15525;45.568;5.448;2023-02-08T08:20:13;74.88;;;32.05;;
28266;SDS011;15525;45.568;5.448;2023-02-08T08:22:39;83.38;;;35.38;;
28266;SDS011;15525;45.568;5.448;2023-02-08T08:25:04;85.82;;;36.38;;
28266;SDS011;15525;45.568;5.448;2023-02-08T08:27:30;79.30;;;33.50;;
28266;SDS011;15525;45.568;5.448;2023-02-08T08:29:55;78.18;;;34.70;;
28266;SDS011;15525;45.568;5.448;2023-02-08T08:32:21;98.68;;;41.83;;
28266;SDS011;15525;45.568;5.448;2023-02-08T08:34:47;86.43;;;36.50;;
28266;SDS011;15525;45.568;5.448;2023-02-08T08:37:12;87.05;;;34.42;;
28266;SDS011;15525;45.568;5.448;2023-02-08T08:39:37;79.60;;;33.45;;
28266;SDS011;15525;45.568;5.448;2023-02-08T08:42:03;87.32;;;36.53;;
28266;SDS011;15525;45.568;5.448;2023-02-08T08:44:29;85.10;;;36.22;;
28266;SDS011;15525;45.568;5.448;2023-02-08T08:46:55;92.63;;;37.45;;
28266;SDS011;15525;45.568;5.448;2023-02-08T08:49:25;93.43;;;39.47;;
28266;SDS011;15525;45.568;5.448;2023-02-08T08:51:52;100.38;;;41.00;;
28266;SDS011;15525;45.568;5.448;2023-02-08T08:54:17;104.07;;;44.10;;
28266;SDS011;15525;45.568;5.448;2023-02-08T08:56:44;95.95;;;42.60;;
28266;SDS011;15525;45.568;5.448;2023-02-08T08:59:09;99.50;;;43.67;;
28266;SDS011;15525;45.568;5.448;2023-02-08T09:01:35;94.97;;;41.55;;
28266;SDS011;15525;45.568;5.448;2023-02-08T09:04:01;92.25;;;40.28;;
28266;SDS011;15525;45.568;5.448;2023-02-08T09:06:26;85.50;;;37.08;;
28266;SDS011;15525;45.568;5.448;2023-02-08T09:08:52;85.50;;;38.03;;
28266;SDS011;15525;45.568;5.448;2023-02-08T09:11:17;87.82;;;37.05;;
28266;SDS011;15525;45.568;5.448;2023-02-08T09:13:43;85.15;;;38.05;;
28266;SDS011;15525;45.568;5.448;2023-02-08T09:16:12;83.68;;;35.28;;
28266;SDS011;15525;45.568;5.448;2023-02-08T09:18:41;79.13;;;35.47;;
28266;SDS011;15525;45.568;5.448;2023-02-08T09:21:08;81.05;;;34.50;;
28266;SDS011;15525;45.568;5.448;2023-02-08T09:23:39;81.03;;;34.63;;
28266;SDS011;15525;45.568;5.448;2023-02-08T09:26:05;76.13;;;34.05;;
28266;SDS011;15525;45.568;5.448;2023-02-08T09:28:32;77.80;;;34.35;;
28266;SDS011;15525;45.568;5.448;2023-02-08T09:30:57;79.68;;;33.97;;
28266;SDS011;15525;45.568;5.448;2023-02-08T09:33:25;77.68;;;35.30;;
28266;SDS011;15525;45.568;5.448;2023-02-08T09:35:51;75.47;;;33.67;;
28266;SDS011;15525;45.568;5.448;2023-02-08T09:38:17;78.85;;;34.58;;
28266;SDS011;15525;45.568;5.448;2023-02-08T09:40:48;73.22;;;33.83;;
28266;SDS011;15525;45.568;5.448;2023-02-08T09:46:53;72.15;;;33.05;;
28266;SDS011;15525;45.568;5.448;2023-02-08T09:49:22;75.35;;;32.65;;
28266;SDS011;15525;45.568;5.448;2023-02-08T09:52:02;75.60;;;33.70;;
28266;SDS011;15525;45.568;5.448;2023-02-08T09:54:35;73.03;;;32.90;;
28266;SDS011;15525;45.568;5.448;2023-02-08T09:57:07;76.18;;;33.97;;
28266;SDS011;15525;45.568;5.448;2023-02-08T09:59:37;73.05;;;34.03;;
28266;SDS011;15525;45.568;5.448;2023-02-08T10:02:16;71.38;;;32.55;;
28266;SDS011;15525;45.568;5.448;2023-02-08T10:05:06;69.88;;;33.08;;
28266;SDS011;15525;45.568;5.448;2023-02-08T10:07:35;71.63;;;32.15;;
28266;SDS011;15525;45.568;5.448;2023-02-08T10:10:04;68.68;;;31.52;;
28266;SDS011;15525;45.568;5.448;2023-02-08T10:15:35;69.45;;;32.97;;
28266;SDS011;15525;45.568;5.448;2023-02-08T10:21:40;66.45;;;31.52;;
28266;SDS011;15525;45.568;5.448;2023-02-08T10:24:17;65.60;;;31.88;;
28266;SDS011;15525;45.568;5.448;2023-02-08T10:38:01;75.70;;;36.03;;
28266;SDS011;15525;45.568;5.448;2023-02-08T10:40:59;69.85;;;34.13;;
28266;SDS011;15525;45.568;5.448;2023-02-08T10:51:27;64.82;;;32.97;;
28266;SDS011;15525;45.568;5.448;2023-02-08T10:53:54;63.50;;;30.15;;
28266;SDS011;15525;45.568;5.448;2023-02-08T10:59:31;60.90;;;30.08;;
28266;SDS011;15525;45.568;5.448;2023-02-08T11:02:26;60.95;;;29.73;;
28266;SDS011;15525;45.568;5.448;2023-02-08T11:04:56;61.83;;;30.10;;
28266;SDS011;15525;45.568;5.448;2023-02-08T11:07:32;62.35;;;29.92;;
28266;SDS011;15525;45.568;5.448;2023-02-08T11:12:42;59.83;;;29.30;;
28266;SDS011;15525;45.568;5.448;2023-02-08T11:15:43;55.55;;;29.13;;
28266;SDS011;15525;45.568;5.448;2023-02-08T11:18:17;60.80;;;29.17;;
28266;SDS011;15525;45.568;5.448;2023-02-08T11:20:49;53.20;;;28.70;;
28266;SDS011;15525;45.568;5.448;2023-02-08T11:23:22;59.72;;;29.33;;
28266;SDS011;15525;45.568;5.448;2023-02-08T11:25:50;59.05;;;29.48;;
28266;SDS011;15525;45.568;5.448;2023-02-08T11:28:23;55.25;;;27.88;;
28266;SDS011;15525;45.568;5.448;2023-02-08T11:30:54;56.67;;;29.08;;
28266;SDS011;15525;45.568;5.448;2023-02-08T11:33:24;58.35;;;29.48;;
28266;SDS011;15525;45.568;5.448;2023-02-08T11:35:55;56.83;;;28.52;;
28266;SDS011;15525;45.568;5.448;2023-02-08T11:38:31;55.30;;;27.70;;
28266;SDS011;15525;45.568;5.448;2023-02-08T11:40:59;52.75;;;27.90;;
28266;SDS011;15525;45.568;5.448;2023-02-08T11:43:37;51.92;;;27.25;;
28266;SDS011;15525;45.568;5.448;2023-02-08T11:46:03;53.10;;;27.58;;
28266;SDS011;15525;45.568;5.448;2023-02-08T11:48:40;55.85;;;28.50;;
28266;SDS011;15525;45.568;5.448;2023-02-08T11:51:11;52.83;;;27.58;;
28266;SDS011;15525;45.568;5.448;2023-02-08T11:53:39;50.67;;;27.05;;
28266;SDS011;15525;45.568;5.448;2023-02-08T11:56:26;52.83;;;27.27;;
28266;SDS011;15525;45.568;5.448;2023-02-08T11:58:57;53.03;;;27.80;;
28266;SDS011;15525;45.568;5.448;2023-02-08T12:01:41;50.42;;;27.00;;
28266;SDS011;15525;45.568;5.448;2023-02-08T12:11:49;50.75;;;25.90;;
28266;SDS011;15525;45.568;5.448;2023-02-08T12:14:33;44.15;;;23.80;;
28266;SDS011;15525;45.568;5.448;2023-02-08T12:25:38;47.22;;;24.17;;
28266;SDS011;15525;45.568;5.448;2023-02-08T12:28:16;36.60;;;19.85;;
28266;SDS011;15525;45.568;5.448;2023-02-08T12:30:46;34.58;;;18.70;;
28266;SDS011;15525;45.568;5.448;2023-02-08T12:33:43;32.72;;;18.05;;
28266;SDS011;15525;45.568;5.448;2023-02-08T12:36:43;17.60;;;8.45;;
28266;SDS011;15525;45.568;5.448;2023-02-08T12:39:40;20.00;;;9.52;;
28266;SDS011;15525;45.568;5.448;2023-02-08T12:42:34;21.05;;;11.27;;
28266;SDS011;15525;45.568;5.448;2023-02-08T12:51:26;18.90;;;10.32;;
28266;SDS011;15525;45.568;5.448;2023-02-08T12:54:04;14.68;;;7.82;;
28266;SDS011;15525;45.568;5.448;2023-02-08T12:56:38;13.13;;;6.60;;
28266;SDS011;15525;45.568;5.448;2023-02-08T12:59:10;19.38;;;8.70;;
28266;SDS011;15525;45.568;5.448;2023-02-08T13:01:47;13.00;;;6.55;;
28266;SDS011;15525;45.568;5.448;2023-02-08T13:04:18;11.77;;;6.60;;
28266;SDS011;15525;45.568;5.448;2023-02-08T13:06:49;12.68;;;7.05;;
28266;SDS011;15525;45.568;5.448;2023-02-08T13:14:34;14.05;;;6.93;;
28266;SDS011;15525;45.568;5.448;2023-02-08T13:17:08;11.48;;;6.90;;
28266;SDS011;15525;45.568;5.448;2023-02-08T13:22:43;12.38;;;7.03;;
28266;SDS011;15525;45.568;5.448;2023-02-08T13:25:14;14.80;;;7.07;;
28266;SDS011;15525;45.568;5.448;2023-02-08T13:27:46;10.90;;;7.15;;
28266;SDS011;15525;45.568;5.448;2023-02-08T13:30:15;13.85;;;6.93;;
28266;SDS011;15525;45.568;5.448;2023-02-08T13:32:43;9.55;;;6.30;;
28266;SDS011;15525;45.568;5.448;2023-02-08T13:35:18;13.43;;;7.00;;
28266;SDS011;15525;45.568;5.448;2023-02-08T13:37:51;12.35;;;7.25;;
28266;SDS011;15525;45.568;5.448;2023-02-08T13:40:25;16.08;;;7.97;;
28266;SDS011;15525;45.568;5.448;2023-02-08T13:42:58;16.27;;;7.68;;
28266;SDS011;15525;45.568;5.448;2023-02-08T13:48:05;15.18;;;7.88;;
28266;SDS011;15525;45.568;5.448;2023-02-08T13:52:58;14.82;;;7.38;;
28266;SDS011;15525;45.568;5.448;2023-02-08T14:00:26;16.67;;;8.60;;
28266;SDS011;15525;45.568;5.448;2023-02-08T14:11:43;14.45;;;7.93;;
28266;SDS011;15525;45.568;5.448;2023-02-08T14:14:16;16.23;;;8.82;;
28266;SDS011;15525;45.568;5.448;2023-02-08T14:16:45;14.60;;;8.63;;
28266;SDS011;15525;45.568;5.448;2023-02-08T14:19:34;18.88;;;9.30;;
28266;SDS011;15525;45.568;5.448;2023-02-08T14:32:48;19.75;;;9.15;;
28266;SDS011;15525;45.568;5.448;2023-02-08T14:35:18;14.88;;;8.48;;
28266;SDS011;15525;45.568;5.448;2023-02-08T14:40:53;16.10;;;8.43;;
28266;SDS011;15525;45.568;5.448;2023-02-08T14:45:48;17.25;;;8.50;;
28266;SDS011;15525;45.568;5.448;2023-02-08T14:48:17;13.90;;;8.40;;
28266;SDS011;15525;45.568;5.448;2023-02-08T14:53:36;17.90;;;9.13;;
28266;SDS011;15525;45.568;5.448;2023-02-08T14:56:28;16.73;;;9.10;;
28266;SDS011;15525;45.568;5.448;2023-02-08T14:58:57;15.77;;;9.27;;
28266;SDS011;15525;45.568;5.448;2023-02-08T15:01:35;18.48;;;9.60;;
28266;SDS011;15525;45.568;5.448;2023-02-08T15:04:06;17.80;;;8.90;;
28266;SDS011;15525;45.568;5.448;2023-02-08T15:09:01;16.95;;;9.23;;
28266;SDS011;15525;45.568;5.448;2023-02-08T15:11:29;16.65;;;8.55;;
28266;SDS011;15525;45.568;5.448;2023-02-08T15:13:57;14.45;;;8.15;;
28266;SDS011;15525;45.568;5.448;2023-02-08T15:16:33;14.15;;;8.50;;
28266;SDS011;15525;45.568;5.448;2023-02-08T15:19:04;14.90;;;8.45;;
28266;SDS011;15525;45.568;5.448;2023-02-08T15:21:32;16.27;;;8.05;;
28266;SDS011;15525;45.568;5.448;2023-02-08T15:26:53;13.68;;;8.07;;
28266;SDS011;15525;45.568;5.448;2023-02-08T15:29:21;18.85;;;7.82;;
28266;SDS011;15525;45.568;5.448;2023-02-08T15:31:53;14.50;;;7.97;;
28266;SDS011;15525;45.568;5.448;2023-02-08T15:34:21;16.10;;;7.88;;
28266;SDS011;15525;45.568;5.448;2023-02-08T15:36:50;15.38;;;9.00;;
28266;SDS011;15525;45.568;5.448;2023-02-08T15:39:31;16.83;;;8.88;;
28266;SDS011;15525;45.568;5.448;2023-02-08T15:41:59;15.38;;;9.13;;
28266;SDS011;15525;45.568;5.448;2023-02-08T15:44:30;17.05;;;9.35;;
28266;SDS011;15525;45.568;5.448;2023-02-08T15:47:04;16.05;;;8.82;;
28266;SDS011;15525;45.568;5.448;2023-02-08T15:49:39;14.90;;;9.05;;
28266;SDS011;15525;45.568;5.448;2023-02-08T15:52:06;12.68;;;8.65;;
28266;SDS011;15525;45.568;5.448;2023-02-08T15:54:37;15.65;;;8.50;;
28266;SDS011;15525;45.568;5.448;2023-02-08T15:57:16;15.32;;;8.68;;
28266;SDS011;15525;45.568;5.448;2023-02-08T15:59:42;16.27;;;8.57;;
28266;SDS011;15525;45.568;5.448;2023-02-08T16:02:26;17.90;;;8.50;;
28266;SDS011;15525;45.568;5.448;2023-02-08T16:04:56;16.58;;;8.77;;
28266;SDS011;15525;45.568;5.448;2023-02-08T16:07:28;16.23;;;8.60;;
28266;SDS011;15525;45.568;5.448;2023-02-08T16:12:24;15.40;;;9.07;;
28266;SDS011;15525;45.568;5.448;2023-02-08T16:14:51;15.88;;;9.15;;
28266;SDS011;15525;45.568;5.448;2023-02-08T16:17:37;15.60;;;8.93;;
28266;SDS011;15525;45.568;5.448;2023-02-08T16:25:48;18.08;;;9.30;;
28266;SDS011;15525;45.568;5.448;2023-02-08T16:28:33;19.27;;;9.25;;
28266;SDS011;15525;45.568;5.448;2023-02-08T16:31:00;21.83;;;9.70;;
28266;SDS011;15525;45.568;5.448;2023-02-08T16:33:28;18.23;;;10.23;;
28266;SDS011;15525;45.568;5.448;2023-02-08T16:35:55;17.30;;;9.73;;
28266;SDS011;15525;45.568;5.448;2023-02-08T16:38:25;18.25;;;9.90;;
28266;SDS011;15525;45.568;5.448;2023-02-08T16:40:54;16.98;;;9.98;;
28266;SDS011;15525;45.568;5.448;2023-02-08T16:48:36;20.08;;;9.35;;
28266;SDS011;15525;45.568;5.448;2023-02-08T16:51:03;23.13;;;11.35;;
28266;SDS011;15525;45.568;5.448;2023-02-08T16:53:31;23.75;;;12.77;;
28266;SDS011;15525;45.568;5.448;2023-02-08T16:55:57;26.08;;;13.70;;
28266;SDS011;15525;45.568;5.448;2023-02-08T16:58:24;23.20;;;13.32;;
28266;SDS011;15525;45.568;5.448;2023-02-08T17:00:50;29.05;;;14.52;;
28266;SDS011;15525;45.568;5.448;2023-02-08T17:03:16;32.33;;;15.38;;
28266;SDS011;15525;45.568;5.448;2023-02-08T17:05:42;30.58;;;14.43;;
28266;SDS011;15525;45.568;5.448;2023-02-08T17:08:15;27.85;;;13.55;;
28266;SDS011;15525;45.568;5.448;2023-02-08T17:13:08;24.65;;;12.13;;
28266;SDS011;15525;45.568;5.448;2023-02-08T17:15:35;28.67;;;13.13;;
28266;SDS011;15525;45.568;5.448;2023-02-08T17:18:00;28.50;;;13.40;;
28266;SDS011;15525;45.568;5.448;2023-02-08T17:20:27;27.80;;;13.07;;
28266;SDS011;15525;45.568;5.448;2023-02-08T17:22:54;32.42;;;14.30;;
28266;SDS011;15525;45.568;5.448;2023-02-08T17:25:21;36.83;;;15.75;;